Time;durP1;ratioP1;P1;durP2;ratioP2;P2;SDS_P1;SDS_P2;PMS_P1;PMS_P2;Temp;Humidity;BMP_temperature;BMP_pressure;BME280_temperature;BME280_humidity;BME280_pressure;Samples;Min_cycle;Max_cycle;Signal;HPM_P1;HPM_P2
2021/11/01 00:02:07;;;;;;;7.18;1.23;;;;;;;15.96;55.01;97306.84;4430338;32;20172;-69
2021/11/01 00:04:33;;;;;;;5.10;0.80;;;;;;;16.63;53.63;97309.28;4426628;32;20442;-68
2021/11/01 00:06:58;;;;;;;7.35;1.12;;;;;;;16.60;53.62;97324.59;4427040;32;20033;-68
2021/11/01 00:09:28;;;;;;;4.47;1.08;;;;;;;16.39;53.87;97309.75;4428531;32;20105;-68
2021/11/01 00:11:54;;;;;;;4.12;0.95;;;;;;;16.54;53.48;97318.34;4428766;32;20430;-68
2021/11/01 00:14:20;;;;;;;6.60;1.05;;;;;;;16.41;54.25;97334.72;4420819;32;20048;-69
2021/11/01 00:16:46;;;;;;;7.30;1.10;;;;;;;16.73;53.33;97323.72;4425458;32;20483;-69
2021/11/01 00:19:11;;;;;;;7.80;0.80;;;;;;;16.77;53.01;97332.63;4428032;32;20068;-68
2021/11/01 00:21:37;;;;;;;3.70;1.10;;;;;;;16.95;52.66;97338.00;4426987;32;20034;-68
2021/11/01 00:24:03;;;;;;;3.62;1.00;;;;;;;17.22;52.03;97338.44;4423424;32;20089;-68
2021/11/01 00:26:28;;;;;;;4.55;0.85;;;;;;;17.24;51.60;97358.50;4425055;32;20048;-68
2021/11/01 00:28:54;;;;;;;5.43;1.00;;;;;;;16.77;52.17;97349.66;4426428;32;20357;-69
2021/11/01 00:31:20;;;;;;;7.85;1.50;;;;;;;16.60;52.46;97352.25;4425174;32;20062;-69
2021/11/01 00:33:46;;;;;;;7.80;0.80;;;;;;;16.08;53.09;97347.78;4425082;32;20125;-68
2021/11/01 00:36:11;;;;;;;6.15;1.10;;;;;;;16.18;52.77;97360.12;4426355;32;20100;-68
2021/11/01 00:38:37;;;;;;;8.95;1.33;;;;;;;16.43;52.65;97352.72;4428604;32;20030;-68
2021/11/01 00:41:03;;;;;;;6.95;1.02;;;;;;;16.50;52.18;97363.34;4429910;32;20096;-68
2021/11/01 00:43:28;;;;;;;5.78;1.12;;;;;;;16.58;52.26;97360.56;4427683;32;20074;-67
2021/11/01 00:45:55;;;;;;;7.25;0.98;;;;;;;16.38;52.64;97362.13;4426849;32;20079;-67
2021/11/01 00:48:21;;;;;;;8.75;1.00;;;;;;;16.63;52.11;97371.00;4428315;32;20506;-67
2021/11/01 00:50:47;;;;;;;7.37;1.23;;;;;;;16.49;52.61;97361.84;4425234;32;20085;-67
2021/11/01 00:53:14;;;;;;;6.75;0.90;;;;;;;16.74;51.92;97360.06;4429388;32;20081;-68
2021/11/01 00:55:55;;;;;;;8.88;0.95;;;;;;;16.61;52.02;97356.59;4426001;32;20068;-67
2021/11/01 00:58:22;;;;;;;5.60;1.05;;;;;;;16.46;52.35;97356.53;4426374;32;20077;-67
2021/11/01 01:00:48;;;;;;;4.87;1.10;;;;;;;16.41;52.36;97355.31;4425906;32;20456;-67
2021/11/01 01:03:15;;;;;;;5.68;0.90;;;;;;;16.57;52.13;97353.38;4425699;32;20072;-67
2021/11/01 01:05:43;;;;;;;5.07;0.88;;;;;;;16.61;51.87;97363.03;4422377;32;20049;-67
2021/11/01 01:08:10;;;;;;;4.95;1.30;;;;;;;16.74;51.00;97360.06;4426915;32;20064;-67
2021/11/01 01:10:36;;;;;;;9.10;0.80;;;;;;;16.76;51.15;97368.78;4426618;32;20091;-67
2021/11/01 01:13:02;;;;;;;5.70;0.90;;;;;;;16.29;51.95;97371.16;4427188;32;20022;-67
2021/11/01 01:15:35;;;;;;;5.95;0.80;;;;;;;16.08;52.07;97353.44;4425304;32;20041;-67
2021/11/01 01:18:02;;;;;;;1.83;0.50;;;;;;;16.04;52.19;97369.28;4425450;32;20087;-67
2021/11/01 01:20:28;;;;;;;8.90;0.93;;;;;;;15.95;52.27;97368.47;4424764;32;20085;-67
2021/11/01 01:22:53;;;;;;;4.93;0.55;;;;;;;16.17;51.70;97360.69;4425393;32;20512;-66
2021/11/01 01:25:25;;;;;;;3.78;0.75;;;;;;;16.46;51.11;97354.44;4427660;32;20073;-67
2021/11/01 01:27:52;;;;;;;3.62;0.60;;;;;;;16.76;50.49;97362.34;4422126;32;20093;-67
2021/11/01 01:30:19;;;;;;;4.72;1.15;;;;;;;16.45;50.82;97357.84;4427999;32;20077;-67
2021/11/01 01:32:45;;;;;;;1.90;0.55;;;;;;;16.55;50.42;97353.16;4423474;32;20091;-67
2021/11/01 01:35:12;;;;;;;3.80;0.60;;;;;;;16.59;50.12;97359.22;4422908;32;20598;-67
2021/11/01 01:37:38;;;;;;;2.20;0.52;;;;;;;16.43;50.77;97349.09;4423897;32;20073;-67
2021/11/01 01:40:07;;;;;;;8.32;0.50;;;;;;;16.36;50.88;97344.91;4427495;32;20044;-66
2021/11/01 01:42:35;;;;;;;4.93;0.45;;;;;;;16.32;51.29;97361.50;4425748;32;20081;-66
2021/11/01 01:45:01;;;;;;;5.22;0.57;;;;;;;16.37;51.28;97357.00;4422061;32;20060;-66
2021/11/01 01:47:28;;;;;;;1.55;0.40;;;;;;;16.14;51.63;97358.97;4424444;32;20136;-67
2021/11/01 01:49:54;;;;;;;3.60;0.57;;;;;;;16.00;51.99;97358.28;4424788;32;20049;-66
2021/11/01 01:52:20;;;;;;;1.85;0.17;;;;;;;16.21;51.93;97352.56;4428016;32;20054;-66
2021/11/01 01:54:46;;;;;;;2.55;0.47;;;;;;;16.05;52.19;97357.41;4423670;32;20018;-66
2021/11/01 01:57:12;;;;;;;1.85;0.52;;;;;;;16.20;51.92;97359.56;4425289;32;20063;-66
2021/11/01 01:59:38;;;;;;;5.50;0.60;;;;;;;16.28;51.97;97360.34;4425507;32;20048;-66
2021/11/01 02:02:04;;;;;;;4.87;0.70;;;;;;;16.23;52.36;97381.88;4426169;32;20069;-68
2021/11/01 02:04:30;;;;;;;3.42;0.50;;;;;;;16.08;53.04;97367.62;4426224;32;20029;-68
2021/11/01 02:07:11;;;;;;;1.83;0.40;;;;;;;16.71;52.02;97364.03;4422949;32;20363;-69
2021/11/01 02:17:52;;;;;;;3.95;0.60;;;;;;;16.09;53.31;97357.03;3973979;32;15021662;-67
2021/11/01 02:20:31;;;;;;;1.92;0.30;;;;;;;15.73;54.50;97354.09;4428944;32;20143;-67
2021/11/01 02:25:53;;;;;;;3.22;0.40;;;;;;;16.13;53.78;97363.13;3985790;32;15022841;-65
2021/11/01 02:28:22;;;;;;;2.40;0.40;;;;;;;16.33;53.38;97365.88;4436468;32;20180;-66
2021/11/01 02:30:51;;;;;;;2.33;0.55;;;;;;;16.03;54.14;97357.19;4439332;32;20084;-67
2021/11/01 02:33:19;;;;;;;2.03;0.70;;;;;;;16.53;53.18;97361.47;4439775;32;20787;-66
2021/11/01 02:35:45;;;;;;;4.25;0.70;;;;;;;16.39;53.41;97377.06;4438916;32;20494;-67
2021/11/01 02:38:14;;;;;;;5.40;0.73;;;;;;;16.21;53.34;97364.69;4434673;32;20033;-65
2021/11/01 02:40:40;;;;;;;6.18;0.60;;;;;;;16.43;53.10;97364.09;4437898;32;20381;-65
2021/11/01 02:43:06;;;;;;;2.12;0.50;;;;;;;15.96;53.79;97369.97;4439401;32;20057;-66
2021/11/01 02:45:35;;;;;;;4.70;1.30;;;;;;;16.35;53.00;97380.25;4440856;32;20129;-66
2021/11/01 02:48:01;;;;;;;2.12;0.45;;;;;;;16.56;52.60;97380.97;4437753;32;20033;-68
2021/11/01 02:50:26;;;;;;;1.85;0.43;;;;;;;16.31;53.15;97373.41;4438808;32;20065;-66
2021/11/01 02:52:52;;;;;;;4.18;0.60;;;;;;;16.52;52.65;97369.25;4438729;32;20069;-66
2021/11/01 02:55:20;;;;;;;2.03;0.40;;;;;;;16.36;52.49;97367.62;4437092;32;20475;-66
2021/11/01 02:57:46;;;;;;;2.58;1.00;;;;;;;16.50;52.48;97379.63;4437944;32;20043;-69
2021/11/01 03:00:14;;;;;;;2.62;0.47;;;;;;;16.73;51.86;97383.34;4437940;32;20025;-67
2021/11/01 03:02:41;;;;;;;6.28;0.60;;;;;;;16.88;51.66;97383.41;4434993;32;20073;-66
2021/11/01 03:05:10;;;;;;;3.55;0.50;;;;;;;16.72;51.69;97387.50;4437368;32;20196;-66
2021/11/01 03:07:37;;;;;;;6.80;0.70;;;;;;;16.90;51.84;97394.94;4437197;32;20071;-66
2021/11/01 03:10:05;;;;;;;2.35;0.50;;;;;;;16.43;52.60;97394.50;4438355;32;20037;-67
2021/11/01 03:12:30;;;;;;;2.87;0.45;;;;;;;16.54;52.37;97383.59;4440098;32;20087;-67
2021/11/01 03:15:08;;;;;;;3.58;0.47;;;;;;;16.47;52.53;97394.94;4436226;32;20037;-69
2021/11/01 03:17:39;;;;;;;5.55;0.57;;;;;;;16.77;51.85;97395.09;4438823;32;20087;-69
2021/11/01 03:20:08;;;;;;;2.87;0.52;;;;;;;16.94;51.31;97403.88;4436981;32;20592;-68
2021/11/01 03:22:40;;;;;;;3.55;0.60;;;;;;;17.01;51.40;97395.37;4438895;32;20133;-68
2021/11/01 03:25:18;;;;;;;3.35;0.65;;;;;;;17.29;50.23;97397.34;4439474;32;20070;-68
2021/11/01 03:27:47;;;;;;;2.53;0.50;;;;;;;17.29;49.90;97414.41;4434986;32;20462;-68
2021/11/01 03:30:15;;;;;;;7.00;1.08;;;;;;;16.88;50.62;97409.72;4438589;32;20071;-68
2021/11/01 03:32:40;;;;;;;4.07;0.80;;;;;;;16.83;50.56;97401.34;4437212;32;20433;-68
2021/11/01 03:35:08;;;;;;;6.95;0.73;;;;;;;16.80;50.37;97400.41;4436783;32;20066;-67
2021/11/01 03:37:34;;;;;;;6.97;0.80;;;;;;;16.95;50.24;97403.31;4427442;32;20061;-68
2021/11/01 03:40:01;;;;;;;5.07;0.40;;;;;;;16.52;50.53;97425.22;4427089;32;20030;-67
2021/11/01 03:42:27;;;;;;;4.75;0.55;;;;;;;16.28;51.03;97403.69;4430207;32;20068;-67
2021/11/01 03:45:01;;;;;;;4.35;0.90;;;;;;;16.71;50.17;97417.97;4421710;32;20427;-68
2021/11/01 03:47:31;;;;;;;4.53;0.65;;;;;;;17.00;49.52;97418.69;4424313;32;20065;-68
2021/11/01 03:50:01;;;;;;;10.85;1.12;;;;;;;17.25;48.96;97423.28;4428117;32;20062;-68
2021/11/01 03:52:32;;;;;;;6.62;0.50;;;;;;;17.21;48.74;97422.91;4428395;32;20475;-67
2021/11/01 03:54:58;;;;;;;2.75;1.00;;;;;;;17.05;48.76;97423.41;4423646;32;20571;-67
2021/11/01 03:57:24;;;;;;;3.78;0.32;;;;;;;16.89;48.89;97427.50;4428007;32;20069;-67
2021/11/01 03:59:52;;;;;;;5.60;0.95;;;;;;;17.09;48.61;97432.34;4426612;32;20115;-67
2021/11/01 04:02:20;;;;;;;7.90;0.62;;;;;;;16.94;48.80;97435.84;4427431;32;20092;-67
2021/11/01 04:04:51;;;;;;;4.05;0.60;;;;;;;17.14;48.46;97445.59;4426308;32;20046;-67
2021/11/01 04:07:18;;;;;;;5.68;0.88;;;;;;;17.20;47.87;97432.75;4426368;32;20059;-67
2021/11/01 04:09:44;;;;;;;5.50;0.50;;;;;;;17.15;48.03;97430.84;4427378;32;20087;-68
2021/11/01 04:12:11;;;;;;;3.85;1.17;;;;;;;17.11;48.19;97436.12;4427952;32;20363;-68
2021/11/01 04:14:49;;;;;;;8.13;0.75;;;;;;;17.48;47.72;97446.91;4426297;32;20102;-68
2021/11/01 04:17:51;;;;;;;4.03;0.50;;;;;;;17.10;48.02;97439.53;4427295;32;20033;-67
2021/11/01 04:20:11;;;;;;;4.93;0.62;;;;;;;16.94;48.49;97455.75;4427824;32;20132;-68
2021/11/01 04:22:38;;;;;;;7.75;1.23;;;;;;;16.92;48.44;97466.91;4426118;32;20022;-68
2021/11/01 04:25:05;;;;;;;4.28;0.70;;;;;;;16.86;48.54;97474.84;4423113;32;20160;-68
2021/11/01 04:27:32;;;;;;;5.07;0.60;;;;;;;17.64;47.94;97468.34;4425363;32;21192;-68
2021/11/01 04:29:59;;;;;;;10.50;1.15;;;;;;;17.51;47.59;97467.75;4425270;32;20089;-68
2021/11/01 04:32:33;;;;;;;6.43;0.60;;;;;;;17.06;47.71;97471.13;4424684;32;20157;-68
2021/11/01 04:35:05;;;;;;;10.57;1.00;;;;;;;17.40;47.28;97488.72;4424620;32;20045;-68
2021/11/01 04:37:31;;;;;;;4.25;0.52;;;;;;;17.03;47.22;97458.06;4422068;32;20344;-67
2021/11/01 04:40:44;;;;;;;6.50;0.60;;;;;;;16.95;47.76;97482.06;4425292;32;20044;-67
2021/11/01 04:53:41;;;;;;;3.30;0.70;;;;;;;17.14;46.80;97494.69;4439702;32;20051;-67
2021/11/01 04:56:07;;;;;;;10.48;0.77;;;;;;;17.09;46.38;97509.06;4436464;32;20022;-67
2021/11/01 04:58:34;;;;;;;9.23;0.60;;;;;;;16.99;47.08;97497.44;4434459;32;20048;-67
2021/11/01 05:01:00;;;;;;;4.12;0.70;;;;;;;16.70;47.13;97500.84;4436069;32;20025;-68
2021/11/01 05:06:05;;;;;;;6.50;1.08;;;;;;;17.41;45.90;97490.25;3984968;32;15022706;-68
2021/11/01 05:08:42;;;;;;;5.37;0.62;;;;;;;17.52;45.61;97497.72;4433220;32;20094;-68
2021/11/01 05:11:24;;;;;;;3.53;0.60;;;;;;;17.53;45.75;97499.22;4435466;32;20425;-68
2021/11/01 05:13:51;;;;;;;2.85;0.70;;;;;;;17.10;46.10;97493.50;4436512;32;20073;-68
2021/11/01 05:16:23;;;;;;;5.62;0.60;;;;;;;16.97;46.36;97497.22;4433715;32;20030;-68
2021/11/01 05:19:03;;;;;;;4.37;0.43;;;;;;;17.10;46.31;97504.88;4437867;32;20573;-68
2021/11/01 05:21:37;;;;;;;4.10;0.62;;;;;;;17.14;45.75;97525.94;4433642;32;20070;-68
2021/11/01 05:24:09;;;;;;;9.75;1.08;;;;;;;16.98;45.93;97518.66;4431957;32;20093;-67
2021/11/01 05:29:11;;;;;;;7.10;0.77;;;;;;;17.54;44.78;97527.09;3975340;31;15706726;-67
2021/11/01 05:31:57;;;;;;;2.97;0.60;;;;;;;17.54;44.78;97527.09;4465048;32;20033;-68
2021/11/01 05:34:24;;;;;;;9.55;0.90;;;;;;;17.02;45.26;97515.44;4462854;32;20021;-68
2021/11/01 05:36:50;;;;;;;4.75;0.65;;;;;;;17.06;45.49;97525.13;4461358;32;20126;-68
2021/11/01 05:39:15;;;;;;;6.93;0.90;;;;;;;17.23;45.02;97518.94;4461713;32;20032;-68
2021/11/01 05:41:42;;;;;;;11.12;0.80;;;;;;;16.79;45.35;97523.84;4459429;32;20029;-68
2021/11/01 05:44:09;;;;;;;5.18;0.85;;;;;;;16.99;45.27;97505.19;4457068;32;20452;-68
2021/11/01 05:46:37;;;;;;;9.45;0.85;;;;;;;16.93;45.18;97524.47;4454354;32;20122;-67
2021/11/01 05:49:05;;;;;;;9.63;1.00;;;;;;;16.84;45.22;97525.75;4459127;32;20065;-67
2021/11/01 05:51:34;;;;;;;10.85;1.23;;;;;;;17.04;44.54;97544.81;4451000;32;20394;-68
2021/11/01 05:54:04;;;;;;;12.32;1.42;;;;;;;17.27;44.38;97537.16;4460138;32;20180;-68
2021/11/01 06:02:20;;;;;;;7.75;1.05;;;;;;;18.09;43.29;97552.25;3998988;31;15016281;-67
2021/11/01 06:15:28;;;;;;;6.55;1.20;;;;;;;18.12;43.39;97559.66;4434846;32;20041;-67
2021/11/01 06:17:55;;;;;;;6.75;0.85;;;;;;;17.37;44.36;97571.50;4431055;32;20135;-68
2021/11/01 06:20:22;;;;;;;8.10;1.02;;;;;;;17.56;44.18;97572.00;4434373;32;20052;-67
2021/11/01 06:22:48;;;;;;;4.87;0.90;;;;;;;17.60;43.75;97570.31;4434383;32;20161;-68
2021/11/01 06:25:16;;;;;;;9.02;0.93;;;;;;;17.70;43.37;97577.00;4427900;32;20433;-68
2021/11/01 06:27:42;;;;;;;4.68;1.00;;;;;;;17.53;43.68;97582.44;4432398;32;20050;-67
2021/11/01 06:33:08;;;;;;;6.95;1.00;;;;;;;17.50;43.69;97580.72;3974753;32;15022576;-68
2021/11/01 06:44:23;;;;;;;8.07;0.85;;;;;;;17.16;44.38;97588.62;4427789;32;20339;-69
2021/11/01 07:14:26;;;;;;;8.40;1.25;;;;;;;15.92;49.96;97610.59;4440580;32;20064;-68
2021/11/01 07:38:00;;;;;;;9.05;1.20;;;;;;;15.93;50.61;97617.03;4426630;32;21188;-66
2021/11/01 08:36:59;;;;;;;11.32;1.48;;;;;;;16.22;49.16;97717.97;4416668;32;20085;-69
2021/11/01 08:44:51;;;;;;;10.65;1.55;;;;;;;16.82;47.96;97730.03;3972170;32;15026192;-68
2021/11/01 08:50:21;;;;;;;7.30;1.33;;;;;;;17.13;48.13;97740.34;3992387;31;15016714;-69
2021/11/01 09:01:52;;;;;;;7.35;0.85;;;;;;;17.11;48.45;97759.25;4440900;32;21001;-69
2021/11/01 09:26:05;;;;;;;5.87;1.10;;;;;;;17.58;49.06;97797.56;3990138;31;15017257;-69
2021/11/01 09:28:37;;;;;;;7.95;1.42;;;;;;;17.58;49.06;97797.56;4452333;32;20322;-70
2021/11/01 09:36:43;;;;;;;;;;;;;;;16.93;49.45;97817.00;4427762;32;20072;-70
2021/11/01 09:39:41;;;;;;;10.52;0.80;;;;;;;16.90;49.25;97818.09;4428782;32;20521;-70
2021/11/01 09:41:57;;;;;;;7.28;0.70;;;;;;;16.12;50.19;97809.75;4427663;32;20094;-70
2021/11/01 09:44:26;;;;;;;2.90;0.57;;;;;;;16.66;49.98;97822.00;4425301;32;20136;-70
2021/11/01 09:46:57;;;;;;;0.52;0.10;;;;;;;15.93;49.83;97835.41;4425670;32;20949;-67
2021/11/01 09:49:25;;;;;;;5.35;0.73;;;;;;;15.77;50.28;97837.22;4423620;32;20386;-67
2021/11/01 09:51:53;;;;;;;3.67;0.40;;;;;;;16.14;50.06;97847.59;4426407;32;20079;-67
2021/11/01 09:54:23;;;;;;;1.90;0.47;;;;;;;16.05;50.68;97847.28;4427566;32;21232;-67
2021/11/01 09:57:03;;;;;;;4.78;0.90;;;;;;;16.13;50.31;97842.50;4427403;32;20092;-67
2021/11/01 09:59:33;;;;;;;1.70;0.50;;;;;;;16.07;51.02;97839.75;4426353;32;20105;-67
2021/11/01 10:02:00;;;;;;;1.85;0.40;;;;;;;16.21;50.15;97826.31;4425700;32;20470;-67
2021/11/01 10:04:29;;;;;;;1.90;0.20;;;;;;;16.20;50.29;97830.47;4427013;32;21615;-68
2021/11/01 10:07:20;;;;;;;3.53;0.28;;;;;;;15.35;51.54;97858.06;4426369;32;20091;-68
2021/11/01 10:09:52;;;;;;;0.90;0.28;;;;;;;15.85;50.39;97843.00;4429923;32;20235;-68
2021/11/01 10:12:21;;;;;;;2.12;0.43;;;;;;;15.94;51.30;97848.25;4426980;32;20095;-69
2021/11/01 10:14:51;;;;;;;2.03;0.40;;;;;;;16.17;50.95;97855.00;4428292;32;20816;-69
2021/11/01 10:17:35;;;;;;;3.28;0.40;;;;;;;15.79;50.83;97848.03;4426097;32;20033;-69
2021/11/01 10:20:04;;;;;;;2.65;0.55;;;;;;;15.82;50.68;97852.59;4426563;32;20435;-69
2021/11/01 10:22:33;;;;;;;1.45;0.45;;;;;;;15.77;50.88;97850.63;4426667;32;20508;-69
2021/11/01 10:25:00;;;;;;;3.80;0.57;;;;;;;15.80;51.07;97853.16;4421338;32;20157;-69
2021/11/01 10:27:36;;;;;;;3.75;0.20;;;;;;;15.75;51.10;97853.25;4425827;32;20136;-68
2021/11/01 10:30:14;;;;;;;2.75;0.25;;;;;;;15.47;51.30;97867.16;4427540;32;20044;-69
2021/11/01 10:32:45;;;;;;;5.93;0.43;;;;;;;15.63;51.51;97868.94;4423944;32;20571;-68
2021/11/01 10:40:47;;;;;;;4.07;0.30;;;;;;;16.18;50.85;97887.00;3978593;32;15022026;-68
2021/11/01 11:13:59;;;;;;;2.78;1.37;;;;;;;15.62;51.39;97941.84;4427150;32;20209;-69
2021/11/01 11:25:02;;;;;;;4.35;1.65;;;;;;;16.50;50.09;97967.91;3978738;32;15025341;-69
2021/11/01 11:47:39;;;;;;;1.15;0.70;;;;;;;15.62;50.74;97992.12;4425887;32;20469;-69
2021/11/01 11:50:15;;;;;;;4.57;1.12;;;;;;;16.11;49.91;98009.63;4428999;32;21390;-69
2021/11/01 11:52:41;;;;;;;3.17;0.70;;;;;;;16.85;48.71;98015.75;4428389;32;20534;-68
2021/11/01 11:55:24;;;;;;;2.30;0.60;;;;;;;16.25;50.04;98019.69;4431940;32;20122;-69
2021/11/01 11:57:55;;;;;;;3.00;0.30;;;;;;;16.39;49.51;98018.41;4428340;32;20731;-68
2021/11/01 12:00:24;;;;;;;1.98;0.50;;;;;;;16.48;49.30;98020.88;4428192;32;20083;-68
2021/11/01 12:02:50;;;;;;;1.58;0.77;;;;;;;16.23;50.09;98025.16;4430779;32;20587;-68
2021/11/01 12:05:23;;;;;;;9.13;1.37;;;;;;;15.95;50.70;98034.91;4423504;32;20104;-68
2021/11/01 12:08:18;;;;;;;1.00;0.28;;;;;;;16.42;49.92;98018.09;4426302;32;20111;-69
2021/11/01 12:19:06;;;;;;;6.22;1.00;;;;;;;16.65;49.47;98035.50;4428143;32;20880;-69
2021/11/01 12:21:36;;;;;;;3.70;1.65;;;;;;;16.50;49.75;98036.03;4430748;32;20034;-69
2021/11/01 12:24:08;;;;;;;5.87;1.58;;;;;;;16.73;49.27;98040.00;4427551;32;20050;-69
2021/11/01 12:26:36;;;;;;;3.20;1.40;;;;;;;16.69;48.82;98024.59;4428837;32;20074;-69
2021/11/01 12:29:07;;;;;;;4.25;1.52;;;;;;;16.48;48.91;98049.25;4431215;32;20037;-69
2021/11/01 12:31:33;;;;;;;4.97;1.37;;;;;;;16.79;48.33;98051.25;4430304;32;20037;-69
2021/11/01 12:36:48;;;;;;;5.18;2.28;;;;;;;16.96;47.25;98060.19;3915872;32;15724589;-69
2021/11/01 12:39:42;;;;;;;2.58;1.37;;;;;;;16.96;47.25;98060.19;4384797;32;20042;-69
2021/11/01 12:58:51;;;;;;;2.80;0.88;;;;;;;16.99;47.05;98088.28;4413235;32;20495;-69
2021/11/01 13:01:18;;;;;;;6.32;0.98;;;;;;;17.32;46.55;98095.37;4413412;32;20161;-69
2021/11/01 13:03:53;;;;;;;3.80;1.00;;;;;;;17.33;46.44;98100.50;4417405;32;20100;-68
2021/11/01 13:09:26;;;;;;;3.37;1.17;;;;;;;17.96;46.00;98113.66;4414209;32;20088;-68
2021/11/01 13:14:56;;;;;;;4.40;0.60;;;;;;;18.05;45.74;98109.56;3973429;32;15144286;-68
2021/11/01 13:20:20;;;;;;;3.75;0.70;;;;;;;18.57;45.44;98113.00;4435808;32;20041;-68
2021/11/01 13:22:51;;;;;;;5.05;1.10;;;;;;;18.57;45.60;98115.06;4434293;32;20125;-68
2021/11/01 13:25:32;;;;;;;5.85;1.05;;;;;;;18.13;45.94;98116.13;4436892;32;20088;-69
2021/11/01 13:37:35;;;;;;;2.85;0.90;;;;;;;18.85;45.03;98129.34;3967688;32;15055320;-70
2021/11/01 13:40:14;;;;;;;4.93;0.90;;;;;;;18.85;45.03;98129.34;4418770;32;20069;-70
2021/11/01 13:42:54;;;;;;;3.92;0.80;;;;;;;18.36;45.81;98137.03;4418727;32;20595;-69
2021/11/01 13:45:21;;;;;;;5.03;1.37;;;;;;;18.29;45.68;98138.50;4417147;32;20082;-69
2021/11/01 13:47:49;;;;;;;4.75;0.90;;;;;;;18.15;47.07;98137.00;4418141;32;20196;-69
2021/11/01 13:50:18;;;;;;;5.68;1.65;;;;;;;18.14;46.05;98157.50;4415631;32;21099;-69
2021/11/01 13:53:10;;;;;;;10.45;1.23;;;;;;;18.11;46.52;98142.28;4415176;32;20043;-69
2021/11/01 14:15:01;;;;;;;13.00;1.75;;;;;;;18.19;45.24;98163.03;4418884;32;21800;-66
2021/11/01 14:28:26;;;;;;;11.70;1.73;;;;;;;18.59;44.69;98177.94;4430766;32;20009;-69
2021/11/01 15:09:25;;;;;;;16.20;4.10;;;;;;;18.89;43.47;98230.25;4422176;32;20418;-68
2021/11/01 15:20:04;;;;;;;12.52;3.12;;;;;;;18.94;42.83;98237.16;3991401;31;15017551;-68
2021/11/01 15:42:15;;;;;;;11.88;2.20;;;;;;;20.28;39.99;98276.56;4428800;32;20099;-68
2021/11/01 16:20:13;;;;;;;10.20;3.28;;;;;;;19.39;41.37;98318.16;3982573;32;15021942;-67
2021/11/01 16:22:40;;;;;;;6.82;2.10;;;;;;;19.39;41.37;98318.16;4433758;32;20089;-68
2021/11/01 16:25:07;;;;;;;11.07;2.17;;;;;;;18.82;42.23;98322.16;4432212;32;20042;-68
2021/11/01 16:27:34;;;;;;;11.88;2.10;;;;;;;18.68;42.28;98317.03;4429999;32;20095;-68
2021/11/01 16:30:13;;;;;;;11.50;1.92;;;;;;;18.83;42.03;98328.59;4434520;32;20068;-68
2021/11/01 16:32:44;;;;;;;13.35;2.08;;;;;;;18.83;42.15;98332.22;4433630;32;20045;-68
2021/11/01 16:35:13;;;;;;;10.88;2.45;;;;;;;18.77;42.13;98339.34;4433322;32;20056;-67
2021/11/01 16:37:49;;;;;;;11.25;2.53;;;;;;;18.82;42.36;98342.09;4434753;32;20041;-68
2021/11/01 16:40:15;;;;;;;10.93;1.92;;;;;;;18.90;42.23;98374.25;4435171;32;20575;-68
2021/11/01 16:42:43;;;;;;;3.00;0.77;;;;;;;18.41;43.26;98373.25;4438697;32;20219;-68
2021/11/01 16:45:16;;;;;;;2.97;0.60;;;;;;;17.62;43.20;98374.50;4432775;32;20658;-67
2021/11/01 16:47:43;;;;;;;3.62;0.82;;;;;;;17.76;43.10;98378.88;4433654;32;20365;-67
2021/11/01 16:50:11;;;;;;;4.85;1.30;;;;;;;17.51;43.90;98372.63;4435023;32;20486;-67
2021/11/01 16:52:39;;;;;;;3.03;0.80;;;;;;;17.40;43.95;98381.28;4435273;32;20029;-67
2021/11/01 16:55:14;;;;;;;2.28;0.80;;;;;;;16.71;45.30;98389.06;4436389;32;20438;-68
2021/11/01 16:57:44;;;;;;;4.40;0.60;;;;;;;16.43;46.78;98390.69;4435377;32;20390;-67
2021/11/01 17:00:23;;;;;;;6.78;1.40;;;;;;;16.09;47.41;98401.66;4436787;32;20102;-68
2021/11/01 17:22:12;;;;;;;4.80;1.73;;;;;;;17.22;46.70;98387.81;4437789;32;20094;-69
2021/11/01 18:52:48;;;;;;;12.05;3.00;;;;;;;18.27;44.10;98488.44;4431690;32;20051;-67
2021/11/01 18:55:14;;;;;;;12.68;2.90;;;;;;;17.83;44.98;98484.28;4430405;32;20069;-67
2021/11/01 18:57:44;;;;;;;6.70;3.15;;;;;;;17.94;44.73;98494.72;4433417;32;20042;-67
2021/11/01 19:00:11;;;;;;;10.43;2.20;;;;;;;18.03;44.94;98497.16;4430825;32;20087;-67
2021/11/01 19:02:49;;;;;;;13.18;2.85;;;;;;;17.87;45.19;98498.97;4430590;32;20064;-67
2021/11/01 19:05:23;;;;;;;11.88;3.12;;;;;;;18.05;45.16;98508.75;4431949;32;20037;-67
2021/11/01 19:08:13;;;;;;;12.15;2.85;;;;;;;18.11;45.03;98509.44;4431248;32;20060;-67
2021/11/01 20:06:22;;;;;;;15.13;4.00;;;;;;;17.83;45.47;98538.34;3982361;32;15024948;-68
2021/11/01 20:14:32;;;;;;;6.60;2.97;;;;;;;18.08;44.72;98544.69;4433601;32;20116;-68
2021/11/01 21:25:32;;;;;;;1.92;0.52;;;;;;;18.27;41.72;98590.16;4450239;32;20064;-67
2021/11/01 21:27:02;;;;;;;1.10;0.50;;;;;;;17.87;42.18;98577.88;4443755;32;20100;-67
2021/11/01 21:29:31;;;;;;;2.53;1.02;;;;;;;17.60;42.39;98585.50;4445586;32;20545;-67
2021/11/01 21:31:56;;;;;;;2.40;0.73;;;;;;;17.72;42.47;98600.31;4434959;32;20017;-67
2021/11/01 21:34:41;;;;;;;1.33;0.60;;;;;;;17.68;43.10;98602.72;4433475;32;20075;-67
2021/11/01 21:37:08;;;;;;;3.83;1.20;;;;;;;17.65;42.50;98613.06;4430955;32;20099;-67
2021/11/01 21:39:35;;;;;;;3.83;1.25;;;;;;;17.62;42.97;98611.31;4435422;32;20061;-67
2021/11/01 21:42:02;;;;;;;5.12;1.10;;;;;;;17.62;43.01;98621.94;4438528;32;20109;-68
2021/11/01 21:44:30;;;;;;;1.65;0.77;;;;;;;17.92;43.74;98623.31;4438011;32;20113;-67
2021/11/01 21:46:56;;;;;;;2.67;1.33;;;;;;;17.79;43.13;98628.16;4435688;32;20029;-67
2021/11/01 21:49:21;;;;;;;5.70;1.80;;;;;;;17.73;43.12;98636.75;4437340;32;20157;-67
2021/11/01 21:51:47;;;;;;;3.67;1.95;;;;;;;17.77;42.51;98631.53;4438176;32;20105;-67
2021/11/01 21:57:00;;;;;;;4.22;2.40;;;;;;;17.72;43.54;98634.47;4000800;31;15017768;-68
2021/11/01 22:21:22;;;;;;;8.15;3.20;;;;;;;17.95;43.11;98621.47;3981779;32;15022950;-68
2021/11/01 22:24:26;;;;;;;8.85;3.15;;;;;;;17.67;43.91;98624.69;4428927;32;20042;-68
2021/11/01 22:46:08;;;;;;;8.15;3.47;;;;;;;18.59;42.26;98619.44;3987094;32;15021758;-68
2021/11/01 22:56:37;;;;;;;8.13;3.92;;;;;;;18.82;41.38;98629.09;4428389;32;19956;-68
2021/11/01 22:59:04;;;;;;;9.75;3.90;;;;;;;18.68;41.79;98630.41;4428408;32;20099;-68
2021/11/01 23:01:38;;;;;;;7.60;3.97;;;;;;;18.52;42.38;98625.75;4431450;32;20064;-68
2021/11/01 23:04:20;;;;;;;7.57;3.25;;;;;;;18.51;42.87;98627.84;4432886;32;20022;-68
2021/11/01 23:31:34;;;;;;;6.75;2.60;;;;;;;18.74;40.81;98636.75;4436792;32;20434;-68
2021/11/01 23:34:03;;;;;;;6.22;3.00;;;;;;;18.56;41.45;98640.47;4438062;32;20473;-68
2021/11/01 23:36:30;;;;;;;4.55;3.17;;;;;;;18.84;41.08;98641.50;4436902;32;20057;-68
2021/11/01 23:38:56;;;;;;;6.00;2.20;;;;;;;18.71;41.45;98635.78;4434031;32;20352;-67
2021/11/01 23:41:22;;;;;;;4.82;2.65;;;;;;;18.58;41.39;98634.97;4433863;32;20037;-68
2021/11/01 23:43:49;;;;;;;6.87;2.40;;;;;;;18.11;41.70;98628.97;4438304;32;21122;-67
2021/11/01 23:46:15;;;;;;;5.47;2.83;;;;;;;18.04;42.06;98628.84;4433207;32;20058;-68
2021/11/01 23:48:42;;;;;;;6.45;2.83;;;;;;;18.30;41.31;98641.09;4435833;32;20045;-68
2021/11/01 23:51:10;;;;;;;4.97;2.53;;;;;;;17.91;42.23;98631.63;4433827;32;20449;-67
2021/11/01 23:56:15;;;;;;;7.25;1.85;;;;;;;17.88;42.30;98628.53;3978430;32;15137625;-68
2021/11/01 23:58:43;;;;;;;5.85;1.80;;;;;;;17.88;42.30;98628.53;4439412;32;20100;-68
